General Aviation Weather

Text Reports

Enter one or more of the following location identifiers separated by a space:

Zip Code, Four-Character ICAO or Three-Character IATA airport codes.

METAR - Aviation Routine Weather Report
KI35 - Harlan, Kentucky
Updated at 5:35 AM GMT on April 17, 2014 (1:35 AM EDT):
METAR KI35 170535Z AUTO 10004KT 10SM CLR 08/M07 A3030 RMK AO1
TAF - Terminal Area Forecast
KI35 - Harlan, Kentucky
Updated at 5:35 AM GMT on April 17, 2014 (1:35 AM EDT):
No TAF is currently available for this location.
Decoded:
No decoded TAF is available.
PIREP - Pilot Weather Report
KI35 - Harlan, Kentucky
Updated at 5:35 AM GMT on April 17, 2014 (1:35 AM EDT):
No PIREP is currently available for this location.
AIRMET - Airmens Meteorological Information
KI35 - Harlan, Kentucky
Updated at 5:35 AM GMT on April 17, 2014 (1:35 AM EDT):
No AIRMET is currently available for this location.
SIGMET - Significant Meteorological Information
KI35 - Harlan, Kentucky
Updated at 5:35 AM GMT on April 17, 2014 (1:35 AM EDT):
No SIGMET is currently available for this location.
NOTAM - Notice to Airmen
KI35 - Harlan, Kentucky
Updated at 5:35 AM GMT on April 17, 2014 (1:35 AM EDT):
No NOTAM is currently available for this location.
Forecast Area
KI35 - Harlan, Kentucky
Updated at 5:35 AM GMT on April 17, 2014 (1:35 AM EDT):
No NOTAM is currently available for this location.
Aviation Weather Maps